sensor_id;sensor_type;location;lat;lon;timestamp;temperature;humidity
2647;DHT22;1333;50.958;6.770;2024-03-22T00:01:46;11.30;99.90
2647;DHT22;1333;50.958;6.770;2024-03-22T00:04:12;11.20;99.90
2647;DHT22;1333;50.958;6.770;2024-03-22T00:06:39;11.20;99.90
2647;DHT22;1333;50.958;6.770;2024-03-22T00:09:05;11.20;99.90
2647;DHT22;1333;50.958;6.770;2024-03-22T00:11:30;11.20;99.90
2647;DHT22;1333;50.958;6.770;2024-03-22T00:13:56;11.20;99.90
2647;DHT22;1333;50.958;6.770;2024-03-22T00:16:22;11.20;99.90
2647;DHT22;1333;50.958;6.770;2024-03-22T00:18:47;11.20;99.90
2647;DHT22;1333;50.958;6.770;2024-03-22T00:21:13;11.20;99.90
2647;DHT22;1333;50.958;6.770;2024-03-22T00:23:38;11.30;99.90
2647;DHT22;1333;50.958;6.770;2024-03-22T00:26:04;11.30;99.90
2647;DHT22;1333;50.958;6.770;2024-03-22T00:28:29;11.30;99.90
2647;DHT22;1333;50.958;6.770;2024-03-22T00:30:55;11.30;99.90
2647;DHT22;1333;50.958;6.770;2024-03-22T00:33:20;11.30;99.90
2647;DHT22;1333;50.958;6.770;2024-03-22T00:35:46;11.30;99.90
2647;DHT22;1333;50.958;6.770;2024-03-22T00:38:12;11.40;99.90
2647;DHT22;1333;50.958;6.770;2024-03-22T00:40:38;11.40;99.90
2647;DHT22;1333;50.958;6.770;2024-03-22T00:43:03;11.40;99.90
2647;DHT22;1333;50.958;6.770;2024-03-22T00:45:29;11.40;99.90
2647;DHT22;1333;50.958;6.770;2024-03-22T00:47:54;11.40;99.90
2647;DHT22;1333;50.958;6.770;2024-03-22T00:50:20;11.40;99.90
2647;DHT22;1333;50.958;6.770;2024-03-22T00:52:45;11.40;99.90
2647;DHT22;1333;50.958;6.770;2024-03-22T00:55:11;11.40;99.90
2647;DHT22;1333;50.958;6.770;2024-03-22T00:57:36;11.40;99.90
2647;DHT22;1333;50.958;6.770;2024-03-22T01:00:02;11.40;99.90
2647;DHT22;1333;50.958;6.770;2024-03-22T01:02:28;11.30;99.90
2647;DHT22;1333;50.958;6.770;2024-03-22T01:04:54;11.40;99.90
2647;DHT22;1333;50.958;6.770;2024-03-22T01:07:19;11.40;99.90
2647;DHT22;1333;50.958;6.770;2024-03-22T01:09:45;11.40;99.90
2647;DHT22;1333;50.958;6.770;2024-03-22T01:12:10;11.40;99.90
2647;DHT22;1333;50.958;6.770;2024-03-22T01:14:36;11.40;99.90
2647;DHT22;1333;50.958;6.770;2024-03-22T01:17:02;11.40;99.90
2647;DHT22;1333;50.958;6.770;2024-03-22T01:19:27;11.40;99.90
2647;DHT22;1333;50.958;6.770;2024-03-22T01:21:53;11.40;99.90
2647;DHT22;1333;50.958;6.770;2024-03-22T01:24:18;11.50;99.90
2647;DHT22;1333;50.958;6.770;2024-03-22T01:26:44;11.40;99.90
2647;DHT22;1333;50.958;6.770;2024-03-22T01:29:09;11.40;99.90
2647;DHT22;1333;50.958;6.770;2024-03-22T01:31:35;11.40;99.90
2647;DHT22;1333;50.958;6.770;2024-03-22T01:34:00;11.40;99.90
2647;DHT22;1333;50.958;6.770;2024-03-22T01:36:26;11.40;99.90
2647;DHT22;1333;50.958;6.770;2024-03-22T01:38:51;11.40;99.90
2647;DHT22;1333;50.958;6.770;2024-03-22T01:41:17;11.50;99.90
2647;DHT22;1333;50.958;6.770;2024-03-22T01:43:43;11.50;99.90
2647;DHT22;1333;50.958;6.770;2024-03-22T01:46:09;11.50;99.90
2647;DHT22;1333;50.958;6.770;2024-03-22T01:48:34;11.50;99.90
2647;DHT22;1333;50.958;6.770;2024-03-22T01:51:01;11.40;99.90
2647;DHT22;1333;50.958;6.770;2024-03-22T01:53:27;11.50;99.90
2647;DHT22;1333;50.958;6.770;2024-03-22T01:55:52;11.50;99.90
2647;DHT22;1333;50.958;6.770;2024-03-22T01:58:18;11.50;99.90
2647;DHT22;1333;50.958;6.770;2024-03-22T02:00:44;11.50;99.90
2647;DHT22;1333;50.958;6.770;2024-03-22T02:03:09;11.50;99.90
2647;DHT22;1333;50.958;6.770;2024-03-22T02:05:35;11.50;99.90
2647;DHT22;1333;50.958;6.770;2024-03-22T02:08:00;11.50;99.90
2647;DHT22;1333;50.958;6.770;2024-03-22T02:10:26;11.50;99.90
2647;DHT22;1333;50.958;6.770;2024-03-22T02:12:52;11.40;99.90
2647;DHT22;1333;50.958;6.770;2024-03-22T02:15:17;11.50;99.90
2647;DHT22;1333;50.958;6.770;2024-03-22T02:17:43;11.40;99.90
2647;DHT22;1333;50.958;6.770;2024-03-22T02:20:09;11.30;99.90
2647;DHT22;1333;50.958;6.770;2024-03-22T02:22:35;11.40;99.90
2647;DHT22;1333;50.958;6.770;2024-03-22T02:25:01;11.40;99.90
2647;DHT22;1333;50.958;6.770;2024-03-22T02:27:26;11.40;99.90
2647;DHT22;1333;50.958;6.770;2024-03-22T02:29:52;11.40;99.90
2647;DHT22;1333;50.958;6.770;2024-03-22T02:32:17;11.40;99.90
2647;DHT22;1333;50.958;6.770;2024-03-22T02:34:43;11.50;99.90
2647;DHT22;1333;50.958;6.770;2024-03-22T02:37:08;11.40;99.90
2647;DHT22;1333;50.958;6.770;2024-03-22T02:39:34;11.50;99.90
2647;DHT22;1333;50.958;6.770;2024-03-22T02:41:59;11.50;99.90
2647;DHT22;1333;50.958;6.770;2024-03-22T02:44:25;11.50;99.90
2647;DHT22;1333;50.958;6.770;2024-03-22T02:46:50;11.50;99.90
2647;DHT22;1333;50.958;6.770;2024-03-22T02:49:16;11.50;99.90
2647;DHT22;1333;50.958;6.770;2024-03-22T02:51:41;11.40;99.90
2647;DHT22;1333;50.958;6.770;2024-03-22T02:54:07;11.50;99.90
2647;DHT22;1333;50.958;6.770;2024-03-22T02:56:32;11.60;99.90
2647;DHT22;1333;50.958;6.770;2024-03-22T02:58:58;11.60;99.90
2647;DHT22;1333;50.958;6.770;2024-03-22T03:01:23;11.60;99.90
2647;DHT22;1333;50.958;6.770;2024-03-22T03:03:49;11.60;99.90
2647;DHT22;1333;50.958;6.770;2024-03-22T03:06:14;11.60;99.90
2647;DHT22;1333;50.958;6.770;2024-03-22T03:08:41;11.60;99.90
2647;DHT22;1333;50.958;6.770;2024-03-22T03:11:07;11.60;99.90
2647;DHT22;1333;50.958;6.770;2024-03-22T03:13:32;11.70;99.90
2647;DHT22;1333;50.958;6.770;2024-03-22T03:15:58;11.70;99.90
2647;DHT22;1333;50.958;6.770;2024-03-22T03:18:24;11.70;99.90
2647;DHT22;1333;50.958;6.770;2024-03-22T03:20:49;11.60;99.90
2647;DHT22;1333;50.958;6.770;2024-03-22T03:23:15;11.60;99.90
2647;DHT22;1333;50.958;6.770;2024-03-22T03:25:40;11.60;99.90
2647;DHT22;1333;50.958;6.770;2024-03-22T03:28:06;11.60;99.90
2647;DHT22;1333;50.958;6.770;2024-03-22T03:30:33;11.60;99.90
2647;DHT22;1333;50.958;6.770;2024-03-22T03:32:58;11.60;99.90
2647;DHT22;1333;50.958;6.770;2024-03-22T03:35:24;11.60;99.90
2647;DHT22;1333;50.958;6.770;2024-03-22T03:37:51;11.50;99.90
2647;DHT22;1333;50.958;6.770;2024-03-22T03:40:16;11.50;99.90
2647;DHT22;1333;50.958;6.770;2024-03-22T03:42:42;11.40;99.90
2647;DHT22;1333;50.958;6.770;2024-03-22T03:45:07;11.40;99.90
2647;DHT22;1333;50.958;6.770;2024-03-22T03:47:33;11.30;99.90
2647;DHT22;1333;50.958;6.770;2024-03-22T03:49:58;11.30;99.90
2647;DHT22;1333;50.958;6.770;2024-03-22T03:52:24;11.20;99.90
2647;DHT22;1333;50.958;6.770;2024-03-22T03:54:49;11.20;99.90
2647;DHT22;1333;50.958;6.770;2024-03-22T03:57:15;11.20;99.90
2647;DHT22;1333;50.958;6.770;2024-03-22T03:59:40;11.10;99.90
2647;DHT22;1333;50.958;6.770;2024-03-22T04:02:06;11.20;99.90
2647;DHT22;1333;50.958;6.770;2024-03-22T04:04:31;11.30;99.90
2647;DHT22;1333;50.958;6.770;2024-03-22T04:06:57;11.20;99.90
2647;DHT22;1333;50.958;6.770;2024-03-22T04:09:23;11.20;99.90
2647;DHT22;1333;50.958;6.770;2024-03-22T04:11:48;11.20;99.90
2647;DHT22;1333;50.958;6.770;2024-03-22T04:14:14;11.10;99.90
2647;DHT22;1333;50.958;6.770;2024-03-22T04:16:40;11.10;99.90
2647;DHT22;1333;50.958;6.770;2024-03-22T04:19:05;11.00;99.90
2647;DHT22;1333;50.958;6.770;2024-03-22T04:21:31;10.90;99.90
2647;DHT22;1333;50.958;6.770;2024-03-22T04:23:56;10.90;99.90
2647;DHT22;1333;50.958;6.770;2024-03-22T04:26:22;10.80;99.90
2647;DHT22;1333;50.958;6.770;2024-03-22T04:28:48;10.70;99.90
2647;DHT22;1333;50.958;6.770;2024-03-22T04:31:14;10.70;99.90
2647;DHT22;1333;50.958;6.770;2024-03-22T04:33:39;10.60;99.90
2647;DHT22;1333;50.958;6.770;2024-03-22T04:36:05;10.60;99.90
2647;DHT22;1333;50.958;6.770;2024-03-22T04:38:31;10.50;99.90
2647;DHT22;1333;50.958;6.770;2024-03-22T04:40:57;10.50;99.90
2647;DHT22;1333;50.958;6.770;2024-03-22T04:43:23;10.50;99.90
2647;DHT22;1333;50.958;6.770;2024-03-22T04:45:50;10.60;99.90
2647;DHT22;1333;50.958;6.770;2024-03-22T04:48:20;10.70;99.90
2647;DHT22;1333;50.958;6.770;2024-03-22T04:50:46;10.70;99.90
2647;DHT22;1333;50.958;6.770;2024-03-22T04:53:13;10.70;99.90
2647;DHT22;1333;50.958;6.770;2024-03-22T04:55:39;10.70;99.90
2647;DHT22;1333;50.958;6.770;2024-03-22T04:58:11;10.70;99.90
2647;DHT22;1333;50.958;6.770;2024-03-22T05:00:37;10.90;99.90
2647;DHT22;1333;50.958;6.770;2024-03-22T05:03:02;10.90;99.90
2647;DHT22;1333;50.958;6.770;2024-03-22T05:05:28;10.90;99.90
2647;DHT22;1333;50.958;6.770;2024-03-22T05:07:54;11.00;99.90
2647;DHT22;1333;50.958;6.770;2024-03-22T05:10:19;11.00;99.90
2647;DHT22;1333;50.958;6.770;2024-03-22T05:12:45;11.00;99.90
2647;DHT22;1333;50.958;6.770;2024-03-22T05:15:10;11.10;99.90
2647;DHT22;1333;50.958;6.770;2024-03-22T05:17:36;11.10;99.90
2647;DHT22;1333;50.958;6.770;2024-03-22T05:20:02;11.10;99.90
2647;DHT22;1333;50.958;6.770;2024-03-22T05:22:28;11.20;99.90
2647;DHT22;1333;50.958;6.770;2024-03-22T05:24:53;11.20;99.90
2647;DHT22;1333;50.958;6.770;2024-03-22T05:27:19;11.30;99.90
2647;DHT22;1333;50.958;6.770;2024-03-22T05:29:44;11.30;99.90
2647;DHT22;1333;50.958;6.770;2024-03-22T05:32:10;11.40;99.90
2647;DHT22;1333;50.958;6.770;2024-03-22T05:34:35;11.50;99.90
2647;DHT22;1333;50.958;6.770;2024-03-22T05:37:02;11.50;99.90
2647;DHT22;1333;50.958;6.770;2024-03-22T05:39:28;11.60;99.90
2647;DHT22;1333;50.958;6.770;2024-03-22T05:41:53;11.70;99.90
2647;DHT22;1333;50.958;6.770;2024-03-22T05:44:21;11.70;99.90
2647;DHT22;1333;50.958;6.770;2024-03-22T05:46:46;11.80;99.90
2647;DHT22;1333;50.958;6.770;2024-03-22T05:49:12;11.80;99.90
2647;DHT22;1333;50.958;6.770;2024-03-22T05:51:38;11.80;99.90
2647;DHT22;1333;50.958;6.770;2024-03-22T05:54:03;11.90;99.90
2647;DHT22;1333;50.958;6.770;2024-03-22T05:56:29;12.00;99.90
2647;DHT22;1333;50.958;6.770;2024-03-22T05:58:54;12.10;99.90
2647;DHT22;1333;50.958;6.770;2024-03-22T06:01:20;12.10;99.90
2647;DHT22;1333;50.958;6.770;2024-03-22T06:03:45;12.30;99.90
2647;DHT22;1333;50.958;6.770;2024-03-22T06:06:11;12.40;99.90
2647;DHT22;1333;50.958;6.770;2024-03-22T06:08:37;12.40;99.90
2647;DHT22;1333;50.958;6.770;2024-03-22T06:11:05;12.50;99.90
2647;DHT22;1333;50.958;6.770;2024-03-22T06:13:31;12.60;99.90
2647;DHT22;1333;50.958;6.770;2024-03-22T06:15:57;12.70;99.90
2647;DHT22;1333;50.958;6.770;2024-03-22T06:18:23;12.70;99.90
2647;DHT22;1333;50.958;6.770;2024-03-22T06:20:48;12.80;99.90
2647;DHT22;1333;50.958;6.770;2024-03-22T06:23:14;12.80;99.90
2647;DHT22;1333;50.958;6.770;2024-03-22T06:25:39;12.90;99.90
2647;DHT22;1333;50.958;6.770;2024-03-22T06:28:05;12.90;99.90
2647;DHT22;1333;50.958;6.770;2024-03-22T06:30:30;13.00;99.90
2647;DHT22;1333;50.958;6.770;2024-03-22T06:32:56;13.10;99.90
2647;DHT22;1333;50.958;6.770;2024-03-22T06:35:21;13.10;99.90
2647;DHT22;1333;50.958;6.770;2024-03-22T06:37:47;13.00;99.90
2647;DHT22;1333;50.958;6.770;2024-03-22T06:40:14;13.20;99.90
2647;DHT22;1333;50.958;6.770;2024-03-22T06:42:40;13.20;99.90
2647;DHT22;1333;50.958;6.770;2024-03-22T06:45:09;13.20;99.90
2647;DHT22;1333;50.958;6.770;2024-03-22T06:47:34;13.40;99.90
2647;DHT22;1333;50.958;6.770;2024-03-22T06:50:00;13.60;99.90
2647;DHT22;1333;50.958;6.770;2024-03-22T06:52:25;13.90;99.90
2647;DHT22;1333;50.958;6.770;2024-03-22T06:54:51;14.00;99.90
2647;DHT22;1333;50.958;6.770;2024-03-22T06:57:17;14.20;99.90
2647;DHT22;1333;50.958;6.770;2024-03-22T06:59:43;14.40;99.90
2647;DHT22;1333;50.958;6.770;2024-03-22T07:02:08;14.60;99.90
2647;DHT22;1333;50.958;6.770;2024-03-22T07:04:35;14.70;99.90
2647;DHT22;1333;50.958;6.770;2024-03-22T07:07:00;14.90;99.90
2647;DHT22;1333;50.958;6.770;2024-03-22T07:09:26;14.90;99.90
2647;DHT22;1333;50.958;6.770;2024-03-22T07:11:53;15.00;99.90
2647;DHT22;1333;50.958;6.770;2024-03-22T07:14:19;14.90;99.90
2647;DHT22;1333;50.958;6.770;2024-03-22T07:16:44;14.90;99.90
2647;DHT22;1333;50.958;6.770;2024-03-22T07:19:11;14.80;99.90
2647;DHT22;1333;50.958;6.770;2024-03-22T07:21:36;14.90;99.90
2647;DHT22;1333;50.958;6.770;2024-03-22T07:24:02;14.90;99.90
2647;DHT22;1333;50.958;6.770;2024-03-22T07:26:28;15.00;99.90
2647;DHT22;1333;50.958;6.770;2024-03-22T07:28:54;15.10;99.90
2647;DHT22;1333;50.958;6.770;2024-03-22T07:31:19;15.20;99.90
2647;DHT22;1333;50.958;6.770;2024-03-22T07:33:45;15.10;99.90
2647;DHT22;1333;50.958;6.770;2024-03-22T07:36:10;15.30;99.90
2647;DHT22;1333;50.958;6.770;2024-03-22T07:38:36;15.40;99.90
2647;DHT22;1333;50.958;6.770;2024-03-22T07:41:03;15.60;99.90
2647;DHT22;1333;50.958;6.770;2024-03-22T07:43:30;15.70;99.90
2647;DHT22;1333;50.958;6.770;2024-03-22T07:45:55;15.90;99.90
2647;DHT22;1333;50.958;6.770;2024-03-22T07:48:21;15.90;99.90
2647;DHT22;1333;50.958;6.770;2024-03-22T07:50:46;15.90;99.90
2647;DHT22;1333;50.958;6.770;2024-03-22T07:53:12;16.10;99.90
2647;DHT22;1333;50.958;6.770;2024-03-22T07:55:39;16.30;99.90
2647;DHT22;1333;50.958;6.770;2024-03-22T07:58:04;16.40;99.90
2647;DHT22;1333;50.958;6.770;2024-03-22T08:00:31;16.50;99.90
2647;DHT22;1333;50.958;6.770;2024-03-22T08:02:56;16.60;99.90
2647;DHT22;1333;50.958;6.770;2024-03-22T08:05:22;16.80;99.90
2647;DHT22;1333;50.958;6.770;2024-03-22T08:07:47;16.90;99.90
2647;DHT22;1333;50.958;6.770;2024-03-22T08:10:13;16.90;99.90
2647;DHT22;1333;50.958;6.770;2024-03-22T08:12:41;17.10;99.90
2647;DHT22;1333;50.958;6.770;2024-03-22T08:15:07;17.10;99.90
2647;DHT22;1333;50.958;6.770;2024-03-22T08:17:32;17.30;99.90
2647;DHT22;1333;50.958;6.770;2024-03-22T08:19:58;17.70;99.90
2647;DHT22;1333;50.958;6.770;2024-03-22T08:22:23;18.40;99.90
2647;DHT22;1333;50.958;6.770;2024-03-22T08:24:49;18.50;99.90
2647;DHT22;1333;50.958;6.770;2024-03-22T08:27:14;18.70;99.90
2647;DHT22;1333;50.958;6.770;2024-03-22T08:29:40;18.70;99.90
2647;DHT22;1333;50.958;6.770;2024-03-22T08:32:06;18.60;99.90
2647;DHT22;1333;50.958;6.770;2024-03-22T08:34:32;18.30;99.90
2647;DHT22;1333;50.958;6.770;2024-03-22T08:36:58;18.20;99.90
2647;DHT22;1333;50.958;6.770;2024-03-22T08:39:23;18.10;99.90
2647;DHT22;1333;50.958;6.770;2024-03-22T08:41:49;18.00;99.90
2647;DHT22;1333;50.958;6.770;2024-03-22T08:44:15;18.20;99.90
2647;DHT22;1333;50.958;6.770;2024-03-22T08:46:40;18.20;99.90
2647;DHT22;1333;50.958;6.770;2024-03-22T08:49:06;18.20;99.90
2647;DHT22;1333;50.958;6.770;2024-03-22T08:51:31;18.30;99.90
2647;DHT22;1333;50.958;6.770;2024-03-22T08:53:57;18.20;99.90
2647;DHT22;1333;50.958;6.770;2024-03-22T08:56:22;18.50;99.90
2647;DHT22;1333;50.958;6.770;2024-03-22T08:58:48;18.80;99.90
2647;DHT22;1333;50.958;6.770;2024-03-22T09:01:14;19.50;99.90
2647;DHT22;1333;50.958;6.770;2024-03-22T09:03:40;20.10;99.90
2647;DHT22;1333;50.958;6.770;2024-03-22T09:06:06;20.30;96.30
2647;DHT22;1333;50.958;6.770;2024-03-22T09:08:31;20.30;92.80
2647;DHT22;1333;50.958;6.770;2024-03-22T09:10:58;20.20;91.40
2647;DHT22;1333;50.958;6.770;2024-03-22T09:13:25;20.50;91.40
2647;DHT22;1333;50.958;6.770;2024-03-22T09:15:57;21.40;91.10
2647;DHT22;1333;50.958;6.770;2024-03-22T09:18:22;22.00;78.20
2647;DHT22;1333;50.958;6.770;2024-03-22T09:20:48;22.50;74.20
2647;DHT22;1333;50.958;6.770;2024-03-22T09:23:13;22.80;66.80
2647;DHT22;1333;50.958;6.770;2024-03-22T09:25:39;22.80;63.30
2647;DHT22;1333;50.958;6.770;2024-03-22T09:28:04;22.90;60.40
2647;DHT22;1333;50.958;6.770;2024-03-22T09:30:30;23.20;61.30
2647;DHT22;1333;50.958;6.770;2024-03-22T09:32:55;23.10;58.50
2647;DHT22;1333;50.958;6.770;2024-03-22T09:35:21;23.50;59.70
2647;DHT22;1333;50.958;6.770;2024-03-22T09:37:46;23.10;56.80
2647;DHT22;1333;50.958;6.770;2024-03-22T09:40:12;22.90;56.30
2647;DHT22;1333;50.958;6.770;2024-03-22T09:42:38;22.60;56.60
2647;DHT22;1333;50.958;6.770;2024-03-22T09:45:08;22.20;55.90
2647;DHT22;1333;50.958;6.770;2024-03-22T09:47:34;22.00;57.00
2647;DHT22;1333;50.958;6.770;2024-03-22T09:50:00;21.60;57.60
2647;DHT22;1333;50.958;6.770;2024-03-22T09:52:26;21.30;58.80
2647;DHT22;1333;50.958;6.770;2024-03-22T09:54:53;21.30;60.00
2647;DHT22;1333;50.958;6.770;2024-03-22T09:57:20;21.20;60.00
2647;DHT22;1333;50.958;6.770;2024-03-22T09:59:46;21.50;60.90
2647;DHT22;1333;50.958;6.770;2024-03-22T10:02:13;21.50;60.70
2647;DHT22;1333;50.958;6.770;2024-03-22T10:04:41;21.50;59.90
2647;DHT22;1333;50.958;6.770;2024-03-22T10:07:08;21.20;59.10
2647;DHT22;1333;50.958;6.770;2024-03-22T10:09:35;20.40;59.90
2647;DHT22;1333;50.958;6.770;2024-03-22T10:12:01;19.70;63.00
2647;DHT22;1333;50.958;6.770;2024-03-22T10:14:27;19.70;66.40
2647;DHT22;1333;50.958;6.770;2024-03-22T10:16:55;19.60;67.90
2647;DHT22;1333;50.958;6.770;2024-03-22T10:19:21;19.60;70.30
2647;DHT22;1333;50.958;6.770;2024-03-22T10:22:07;19.60;71.00
2647;DHT22;1333;50.958;6.770;2024-03-22T10:24:33;19.40;70.70
2647;DHT22;1333;50.958;6.770;2024-03-22T10:26:59;19.40;73.70
2647;DHT22;1333;50.958;6.770;2024-03-22T10:29:24;19.50;75.20
2647;DHT22;1333;50.958;6.770;2024-03-22T10:31:51;19.50;75.10
2647;DHT22;1333;50.958;6.770;2024-03-22T10:34:18;19.60;76.60
2647;DHT22;1333;50.958;6.770;2024-03-22T10:36:44;19.30;75.70
2647;DHT22;1333;50.958;6.770;2024-03-22T10:39:13;19.40;76.50
2647;DHT22;1333;50.958;6.770;2024-03-22T10:41:40;19.20;78.10
2647;DHT22;1333;50.958;6.770;2024-03-22T10:44:06;19.40;80.90
2647;DHT22;1333;50.958;6.770;2024-03-22T10:46:34;19.70;81.30
2647;DHT22;1333;50.958;6.770;2024-03-22T10:49:02;20.20;81.60
2647;DHT22;1333;50.958;6.770;2024-03-22T10:51:30;20.60;79.10
2647;DHT22;1333;50.958;6.770;2024-03-22T10:53:57;20.90;75.00
2647;DHT22;1333;50.958;6.770;2024-03-22T10:56:24;21.20;74.40
2647;DHT22;1333;50.958;6.770;2024-03-22T10:58:50;21.40;72.10
2647;DHT22;1333;50.958;6.770;2024-03-22T11:01:25;21.40;71.00
2647;DHT22;1333;50.958;6.770;2024-03-22T11:03:51;21.30;70.10
2647;DHT22;1333;50.958;6.770;2024-03-22T11:06:20;21.20;70.40
2647;DHT22;1333;50.958;6.770;2024-03-22T11:08:50;20.60;68.60
2647;DHT22;1333;50.958;6.770;2024-03-22T11:11:18;20.10;71.80
2647;DHT22;1333;50.958;6.770;2024-03-22T11:13:47;19.40;72.90
2647;DHT22;1333;50.958;6.770;2024-03-22T11:16:14;19.00;78.20
2647;DHT22;1333;50.958;6.770;2024-03-22T11:18:39;18.80;82.60
2647;DHT22;1333;50.958;6.770;2024-03-22T11:21:05;18.90;86.00
2647;DHT22;1333;50.958;6.770;2024-03-22T11:23:34;19.10;87.50
2647;DHT22;1333;50.958;6.770;2024-03-22T11:26:01;19.40;89.70
2647;DHT22;1333;50.958;6.770;2024-03-22T11:28:27;19.90;88.20
2647;DHT22;1333;50.958;6.770;2024-03-22T11:30:52;20.20;82.80
2647;DHT22;1333;50.958;6.770;2024-03-22T11:33:18;20.30;79.20
2647;DHT22;1333;50.958;6.770;2024-03-22T11:35:44;20.40;78.50
2647;DHT22;1333;50.958;6.770;2024-03-22T11:38:10;20.40;78.00
2647;DHT22;1333;50.958;6.770;2024-03-22T11:40:36;20.20;75.60
2647;DHT22;1333;50.958;6.770;2024-03-22T11:43:02;19.60;77.90
2647;DHT22;1333;50.958;6.770;2024-03-22T11:45:28;19.40;80.80
2647;DHT22;1333;50.958;6.770;2024-03-22T11:47:54;19.00;84.50
2647;DHT22;1333;50.958;6.770;2024-03-22T11:50:19;18.80;89.30
2647;DHT22;1333;50.958;6.770;2024-03-22T11:52:45;18.80;91.40
2647;DHT22;1333;50.958;6.770;2024-03-22T11:55:14;18.80;93.40
2647;DHT22;1333;50.958;6.770;2024-03-22T11:57:40;18.80;94.40
2647;DHT22;1333;50.958;6.770;2024-03-22T12:00:06;18.40;95.20
2647;DHT22;1333;50.958;6.770;2024-03-22T12:02:35;18.00;99.90
2647;DHT22;1333;50.958;6.770;2024-03-22T12:05:02;17.70;99.90
2647;DHT22;1333;50.958;6.770;2024-03-22T12:07:28;17.70;99.90
2647;DHT22;1333;50.958;6.770;2024-03-22T12:09:54;17.60;99.90
2647;DHT22;1333;50.958;6.770;2024-03-22T12:12:21;17.70;99.90
2647;DHT22;1333;50.958;6.770;2024-03-22T12:14:47;17.60;99.90
2647;DHT22;1333;50.958;6.770;2024-03-22T12:17:13;17.30;99.90
2647;DHT22;1333;50.958;6.770;2024-03-22T12:19:38;17.50;99.90
2647;DHT22;1333;50.958;6.770;2024-03-22T12:22:04;17.60;99.90
2647;DHT22;1333;50.958;6.770;2024-03-22T12:24:32;17.50;99.90
2647;DHT22;1333;50.958;6.770;2024-03-22T12:26:57;17.70;99.90
2647;DHT22;1333;50.958;6.770;2024-03-22T12:29:23;17.80;99.90
2647;DHT22;1333;50.958;6.770;2024-03-22T12:31:49;17.90;99.90
2647;DHT22;1333;50.958;6.770;2024-03-22T12:34:15;17.80;99.90
2647;DHT22;1333;50.958;6.770;2024-03-22T12:36:40;18.00;99.90
2647;DHT22;1333;50.958;6.770;2024-03-22T12:39:06;18.10;99.90
2647;DHT22;1333;50.958;6.770;2024-03-22T12:41:32;18.20;99.90
2647;DHT22;1333;50.958;6.770;2024-03-22T12:43:58;18.00;99.90
2647;DHT22;1333;50.958;6.770;2024-03-22T12:46:25;17.70;99.90
2647;DHT22;1333;50.958;6.770;2024-03-22T12:48:50;17.70;99.90
2647;DHT22;1333;50.958;6.770;2024-03-22T12:51:16;17.80;99.90
2647;DHT22;1333;50.958;6.770;2024-03-22T12:53:41;17.90;99.90
2647;DHT22;1333;50.958;6.770;2024-03-22T12:56:07;18.00;99.90
2647;DHT22;1333;50.958;6.770;2024-03-22T12:58:33;18.00;99.90
2647;DHT22;1333;50.958;6.770;2024-03-22T13:00:59;18.20;99.70
2647;DHT22;1333;50.958;6.770;2024-03-22T13:03:26;18.60;99.90
2647;DHT22;1333;50.958;6.770;2024-03-22T13:05:52;19.00;98.20
2647;DHT22;1333;50.958;6.770;2024-03-22T13:08:17;19.40;96.80
2647;DHT22;1333;50.958;6.770;2024-03-22T13:10:44;19.80;93.40
2647;DHT22;1333;50.958;6.770;2024-03-22T13:13:10;20.20;90.90
2647;DHT22;1333;50.958;6.770;2024-03-22T13:15:36;20.90;89.50
2647;DHT22;1333;50.958;6.770;2024-03-22T13:18:03;22.00;81.20
2647;DHT22;1333;50.958;6.770;2024-03-22T13:20:29;23.10;73.10
2647;DHT22;1333;50.958;6.770;2024-03-22T13:22:55;23.80;65.70
2647;DHT22;1333;50.958;6.770;2024-03-22T13:25:20;24.40;59.40
2647;DHT22;1333;50.958;6.770;2024-03-22T13:27:46;25.10;57.50
2647;DHT22;1333;50.958;6.770;2024-03-22T13:30:12;25.80;55.40
2647;DHT22;1333;50.958;6.770;2024-03-22T13:32:38;26.40;53.30
2647;DHT22;1333;50.958;6.770;2024-03-22T13:35:05;28.00;51.50
2647;DHT22;1333;50.958;6.770;2024-03-22T13:37:31;29.70;48.80
2647;DHT22;1333;50.958;6.770;2024-03-22T13:39:57;31.50;44.40
2647;DHT22;1333;50.958;6.770;2024-03-22T13:42:22;32.90;41.10
2647;DHT22;1333;50.958;6.770;2024-03-22T13:44:48;32.80;35.80
2647;DHT22;1333;50.958;6.770;2024-03-22T13:47:14;32.50;35.80
2647;DHT22;1333;50.958;6.770;2024-03-22T13:49:39;30.70;33.70
2647;DHT22;1333;50.958;6.770;2024-03-22T13:52:07;29.20;34.60
2647;DHT22;1333;50.958;6.770;2024-03-22T13:54:32;28.20;36.40
2647;DHT22;1333;50.958;6.770;2024-03-22T13:56:58;27.70;38.10
2647;DHT22;1333;50.958;6.770;2024-03-22T13:59:24;27.60;39.50
2647;DHT22;1333;50.958;6.770;2024-03-22T14:01:49;28.00;40.50
2647;DHT22;1333;50.958;6.770;2024-03-22T14:04:15;27.80;37.00
2647;DHT22;1333;50.958;6.770;2024-03-22T14:06:41;28.00;38.50
2647;DHT22;1333;50.958;6.770;2024-03-22T14:09:07;27.90;38.60
2647;DHT22;1333;50.958;6.770;2024-03-22T14:11:36;27.50;38.20
2647;DHT22;1333;50.958;6.770;2024-03-22T14:14:02;27.10;38.30
2647;DHT22;1333;50.958;6.770;2024-03-22T14:16:27;27.00;39.10
2647;DHT22;1333;50.958;6.770;2024-03-22T14:18:53;26.80;38.80
2647;DHT22;1333;50.958;6.770;2024-03-22T14:21:19;26.30;38.50
2647;DHT22;1333;50.958;6.770;2024-03-22T14:23:49;25.70;39.20
2647;DHT22;1333;50.958;6.770;2024-03-22T14:26:16;24.90;39.80
2647;DHT22;1333;50.958;6.770;2024-03-22T14:28:42;24.20;40.80
2647;DHT22;1333;50.958;6.770;2024-03-22T14:31:08;23.80;42.00
2647;DHT22;1333;50.958;6.770;2024-03-22T14:33:35;23.40;43.10
2647;DHT22;1333;50.958;6.770;2024-03-22T14:36:01;23.10;44.10
2647;DHT22;1333;50.958;6.770;2024-03-22T14:38:27;22.80;45.10
2647;DHT22;1333;50.958;6.770;2024-03-22T14:40:53;22.50;45.80
2647;DHT22;1333;50.958;6.770;2024-03-22T14:43:20;22.30;46.80
2647;DHT22;1333;50.958;6.770;2024-03-22T14:45:46;22.20;47.90
2647;DHT22;1333;50.958;6.770;2024-03-22T14:48:11;22.20;48.70
2647;DHT22;1333;50.958;6.770;2024-03-22T14:50:37;22.20;49.30
2647;DHT22;1333;50.958;6.770;2024-03-22T14:53:05;22.20;49.70
2647;DHT22;1333;50.958;6.770;2024-03-22T14:55:30;22.10;50.20
2647;DHT22;1333;50.958;6.770;2024-03-22T14:57:56;22.00;50.60
2647;DHT22;1333;50.958;6.770;2024-03-22T15:00:22;21.90;51.10
2647;DHT22;1333;50.958;6.770;2024-03-22T15:02:51;21.70;51.50
2647;DHT22;1333;50.958;6.770;2024-03-22T15:05:17;21.60;52.20
2647;DHT22;1333;50.958;6.770;2024-03-22T15:07:42;21.50;53.20
2647;DHT22;1333;50.958;6.770;2024-03-22T15:10:08;21.50;53.90
2647;DHT22;1333;50.958;6.770;2024-03-22T15:12:34;21.30;54.20
2647;DHT22;1333;50.958;6.770;2024-03-22T15:14:59;21.00;54.60
2647;DHT22;1333;50.958;6.770;2024-03-22T15:17:25;20.70;55.70
2647;DHT22;1333;50.958;6.770;2024-03-22T15:19:50;20.30;56.90
2647;DHT22;1333;50.958;6.770;2024-03-22T15:22:16;20.00;58.30
2647;DHT22;1333;50.958;6.770;2024-03-22T15:24:45;19.70;61.40
2647;DHT22;1333;50.958;6.770;2024-03-22T15:27:10;19.40;65.10
2647;DHT22;1333;50.958;6.770;2024-03-22T15:29:36;19.20;70.30
2647;DHT22;1333;50.958;6.770;2024-03-22T15:32:02;19.10;75.70
2647;DHT22;1333;50.958;6.770;2024-03-22T15:34:28;18.80;81.70
2647;DHT22;1333;50.958;6.770;2024-03-22T15:36:53;18.60;89.70
2647;DHT22;1333;50.958;6.770;2024-03-22T15:39:19;18.30;94.80
2647;DHT22;1333;50.958;6.770;2024-03-22T15:41:45;18.10;99.00
2647;DHT22;1333;50.958;6.770;2024-03-22T15:44:10;17.90;99.90
2647;DHT22;1333;50.958;6.770;2024-03-22T15:46:36;17.80;99.90
2647;DHT22;1333;50.958;6.770;2024-03-22T15:49:01;17.60;99.90
2647;DHT22;1333;50.958;6.770;2024-03-22T15:51:27;17.50;99.90
2647;DHT22;1333;50.958;6.770;2024-03-22T15:53:52;17.40;99.90